Terminal Aerodrome Forecast
Issued by NWS

Home | Current Version | Previous Version | Text Only | Print | Product List | Glossary On
Versions: 1 2 3 4 5 6 7 8 9 10 11 12 13 14
000
FTUS46 KMTR 310500
TAFOAK
TAF
KOAK 310520Z 3106/0112 29009KT P6SM FEW200
     FM312000 28012KT P6SM FEW200
     FM010300 29007KT P6SM FEW200=

USA.gov is the U.S. government's official web portal to all federal, state and local government web resources and services.